Nearby METAR Reports

 

KCMA - Camarillo, California, USA
Distance from station: WSW 4mi, 7km
Updated: Thu, 21-Jun-2018 11:55am PDT
Haze, Overcast
Haze, Overcast
 Wind from SW
Wind: SW 8 mph , 13 km/h
Temperature: 70°F , 21°C
Dew Point: 59°F , 15°C
Humidity: 69%
Barometer: 29.96 inHg , 1014.6 hPa
Summary: Haze
Clouds: Overcast
Visibility: 6 miles , 10 km
Cloud details: Overcast 1300 ft
2018/06/21 18:55 KCMA 211855Z 23007KT 6SM HZ OVC013 21/15 A2996 RMK AO2 SLP153 T02110150
KNTD - Point Mugu Nas, California, USA
Distance from station: SSW 9mi, 15km
Updated: Thu, 21-Jun-2018 12:58pm PDT
Haze, Overcast
Haze, Overcast
 Wind from W
Wind: W 9 mph , 15 km/h
Temperature: 70°F , 21°C
Dew Point: 61°F , 16°C
Humidity: 73%
Barometer: 29.96 inHg , 1014.6 hPa
Summary: Haze
Clouds: Overcast
Visibility: 5 miles , 8 km
Cloud details: Overcast 1300 ft
2018/06/21 19:58 KNTD 211958Z 27008KT 5SM HZ OVC013 21/16 A2996 RMK AO2 SLP147 T02060156 CHINO N VISNO N $
 
KOXR - Oxnard, California, USA
Distance from station: WSW 10mi, 16km
Updated: Thu, 21-Jun-2018 12:59pm PDT
Overcast
Overcast
 Wind from W
Wind: W 12 mph , 19 km/h
Temperature: 64°F , 18°C
Dew Point: 61°F , 16°C
Humidity: 88%
Barometer: 29.96 inHg , 1014.6 hPa
Clouds: Overcast
Visibility: 10 miles , 16 km
Cloud details: Overcast 1100 ft
2018/06/21 19:59 KOXR 211959Z 26010KT 10SM OVC011 18/16 A2996 RMK AO2 T01830156
KVNY - Van Nuys, California, USA
Distance from station: E 31mi, 50km
Updated: Thu, 21-Jun-2018 12:51pm PDT
Clear
Clear
 Wind from varies
Wind: varies 6 mph , 9 km/h
Temperature: 82°F , 28°C
Heat Index: 82°F , 28°C
Dew Point: 61°F , 16°C
Humidity: 48%
Barometer: 29.93 inHg , 1013.5 hPa
Clouds: Clear
Visibility: 10 miles , 16 km
2018/06/21 19:51 KVNY 211951Z VRB05KT 10SM CLR 28/16 A2993 RMK AO2 SLP126 T02780156
 
KWHP - La / Whiteman, California, USA
Distance from station: E 35mi, 56km
Updated: Thu, 21-Jun-2018 12:50pm PDT
Haze, Clear
Haze, Clear
 Wind from SSE
Wind: SSE 8 mph , 13 km/h
Temperature: 81°F , 27°C
Heat Index: 81°F , 27°C
Dew Point: 59°F , 15°C
Humidity: 48%
Barometer: 29.97 inHg , 1014.9 hPa
Summary: Haze
Clouds: Clear
Visibility: 7 miles , 11 km
2018/06/21 19:50 KWHP 211950Z 15007KT 7SM HZ SKC 27/15 A2997
KSMO - Santa Monica, California, USA
Distance from station: ESE 36mi, 58km
Updated: Thu, 21-Jun-2018 12:51pm PDT
Mostly cloudy
Mostly cloudy
 Wind from SW
Wind: SW 8 mph , 13 km/h
Temperature: 70°F , 21°C
Dew Point: 61°F , 16°C
Humidity: 73%
Barometer: 29.96 inHg , 1014.6 hPa
Clouds: Mostly cloudy
Visibility: 7 miles , 11 km
Cloud details: Mostly cloudy 1400 ft
2018/06/21 19:51 KSMO 211951Z 22007KT 190V250 7SM BKN014 21/16 A2996 RMK AO2 SLP142 T02060156
 
KBUR - Burbank, California, USA
Distance from station: E 38mi, 61km
Updated: Thu, 21-Jun-2018 12:53pm PDT
Clear
Clear
 Wind from S
Wind: S 8 mph , 13 km/h
Temperature: 79°F , 26°C
Dew Point: 63°F , 17°C
Humidity: 58%
Barometer: 29.93 inHg , 1013.5 hPa
Clouds: Clear
Visibility: 9 miles , 14 km
2018/06/21 19:53 KBUR 211953Z 17007KT 9SM CLR 26/17 A2993 RMK AO2 SLP123 T02560167
KSDB - Sandberg, California, USA
Distance from station: NNE 40mi, 64km
Updated: Thu, 21-Jun-2018 12:53pm PDT

 Wind from NW
Wind: NW 10 mph , 17 km/h, Gust: 16 mph , 26 km/h
Temperature: 91°F , 33°C
Dew Point: 37°F , 3°C
Humidity: 15%
Barometer: 30.14 inHg , 1020.7 hPa
Visibility: 10 miles , 16 km
2018/06/21 19:53 KSDB 211953Z AUTO 31009G14KT 10SM 33/03 A3014 RMK AO2 SLP154 T03330028 $
 
KLAX - Los Angeles, California, USA
Distance from station: ESE 42mi, 68km
Updated: Thu, 21-Jun-2018 1:00pm PDT
Partly cloudy
Partly cloudy
 Wind from WSW
Wind: WSW 8 mph , 13 km/h
Temperature: 72°F , 22°C
Dew Point: 61°F , 16°C
Humidity: 69%
Barometer: 29.95 inHg , 1014.2 hPa
Clouds: Partly cloudy
Visibility: 7 miles , 11 km
Cloud details: Partly cloudy 1400 ft
Partly cloudy 2100 ft
2018/06/21 20:00 KLAX 212000Z 24007KT 7SM SCT014 SCT021 22/16 A2995 RMK AO2 T02170161
KCQT - Los Angeles, California, USA
Distance from station: ESE 45mi, 73km
Updated: Thu, 21-Jun-2018 12:47pm PDT
Clear
Clear
 Wind from calm
Wind: Calm
Temperature: 75°F , 24°C
Dew Point: 63°F , 17°C
Humidity: 65%
Barometer: 29.93 inHg , 1013.5 hPa
Clouds: Clear
Visibility: 7 miles , 11 km
2018/06/21 19:47 KCQT 211947Z AUTO 00000KT 7SM CLR 24/17 A2993 RMK AO2 SLP133 T02440167
 
KHHR - Hawthorne, California, USA
Distance from station: ESE 45mi, 73km
Updated: Thu, 21-Jun-2018 12:53pm PDT
Clear
Clear
 Wind from WSW
Wind: WSW 8 mph , 13 km/h
Temperature: 72°F , 22°C
Dew Point: 61°F , 16°C
Humidity: 69%
Barometer: 29.95 inHg , 1014.2 hPa
Clouds: Clear
Visibility: 9 miles , 14 km
2018/06/21 19:53 KHHR 211953Z 24007KT 9SM CLR 22/16 A2995 RMK AO2 SLP141 T02220161
KSBA - Santa Barbara, California, USA
Distance from station: WNW 49mi, 79km
Updated: Thu, 21-Jun-2018 12:53pm PDT
Mostly cloudy
Mostly cloudy
 Wind from SW
Wind: SW 8 mph , 13 km/h
Temperature: 68°F , 20°C
Dew Point: 57°F , 14°C
Humidity: 69%
Barometer: 29.96 inHg , 1014.6 hPa
Clouds: Mostly cloudy
Visibility: 10 miles , 16 km
Cloud details: Mostly cloudy 1300 ft
2018/06/21 19:53 KSBA 211953Z 23007KT 10SM BKN013 20/14 A2996 RMK AO2 SLP146 T02000144